Time;durP1;ratioP1;P1;durP2;ratioP2;P2;SDS_P1;SDS_P2;PMS_P1;PMS_P2;Temp;Humidity;BMP_temperature;BMP_pressure;BME280_temperature;BME280_humidity;BME280_pressure;Samples;Min_cycle;Max_cycle;Signal;HPM_P1;HPM_P2
2023/08/16 00:00:57;;;;;;;12.13;6.60;;;;;;;;;;5054186;28;20029;-82
2023/08/16 00:03:22;;;;;;;6.72;5.93;;;;;;;;;;5064066;28;20041;-82
2023/08/16 00:05:48;;;;;;;10.13;5.97;;;;;;;;;;5052640;28;20489;-80
2023/08/16 00:08:13;;;;;;;7.35;6.22;;;;;;;;;;5055249;28;20025;-83
2023/08/16 00:10:38;;;;;;;9.95;6.47;;;;;;;;;;5060837;28;20045;-81
2023/08/16 00:13:04;;;;;;;10.35;6.47;;;;;;;;;;5061528;28;20063;-83
2023/08/16 00:15:29;;;;;;;9.90;6.35;;;;;;;;;;5055873;28;20041;-81
2023/08/16 00:17:55;;;;;;;9.40;6.78;;;;;;;;;;5054467;28;20080;-82
2023/08/16 00:20:20;;;;;;;8.63;7.00;;;;;;;;;;5055779;28;20205;-83
2023/08/16 00:22:46;;;;;;;7.15;6.25;;;;;;;;;;5057719;28;20044;-82
2023/08/16 00:25:19;;;;;;;9.48;6.85;;;;;;;;;;5056245;28;20040;-83
2023/08/16 00:27:44;;;;;;;12.60;6.72;;;;;;;;;;5037983;28;20028;-83
2023/08/16 00:30:11;;;;;;;9.05;6.55;;;;;;;;;;5056901;28;20093;-82
2023/08/16 00:32:37;;;;;;;9.73;6.60;;;;;;;;;;5039494;28;20028;-82
2023/08/16 00:35:03;;;;;;;12.07;7.65;;;;;;;;;;5038652;28;20222;-81
2023/08/16 00:37:28;;;;;;;13.90;8.75;;;;;;;;;;5056285;28;20045;-80
2023/08/16 00:39:53;;;;;;;13.10;8.02;;;;;;;;;;5056773;28;20132;-82
2023/08/16 00:42:18;;;;;;;9.68;8.13;;;;;;;;;;5055552;28;20032;-81
2023/08/16 00:44:44;;;;;;;12.20;8.07;;;;;;;;;;5038900;28;20467;-83
2023/08/16 00:47:09;;;;;;;11.80;9.10;;;;;;;;;;5057986;28;20121;-80
2023/08/16 00:49:37;;;;;;;14.45;9.10;;;;;;;;;;5058109;28;20033;-84
2023/08/16 00:52:03;;;;;;;15.63;10.30;;;;;;;;;;5056396;28;20033;-82
2023/08/16 00:54:29;;;;;;;12.35;9.45;;;;;;;;;;5056393;28;20063;-82
2023/08/16 00:56:56;;;;;;;13.23;9.02;;;;;;;;;;5056860;28;20028;-83
2023/08/16 00:59:22;;;;;;;15.70;8.93;;;;;;;;;;5039364;28;20063;-83
2023/08/16 01:01:48;;;;;;;9.75;8.15;;;;;;;;;;5056797;28;20300;-83
2023/08/16 01:04:14;;;;;;;14.77;8.95;;;;;;;;;;5055628;28;20115;-82
2023/08/16 01:06:40;;;;;;;11.73;8.65;;;;;;;;;;5055049;28;21281;-81
2023/08/16 01:09:05;;;;;;;10.55;7.93;;;;;;;;;;5057629;28;20084;-83
2023/08/16 01:12:14;;;;;;;11.45;7.82;;;;;;;;;;5056752;28;20080;-83
2023/08/16 01:15:14;;;;;;;15.35;8.48;;;;;;;;;;5037560;28;20064;-81
2023/08/16 01:17:42;;;;;;;12.07;6.82;;;;;;;;;;5056658;28;20037;-83
2023/08/16 01:20:10;;;;;;;9.00;6.57;;;;;;;;;;5055769;28;20100;-83
2023/08/16 01:22:50;;;;;;;16.38;7.90;;;;;;;;;;5053960;28;20041;-83
2023/08/16 01:25:24;;;;;;;12.70;7.95;;;;;;;;;;5055783;28;20033;-82
2023/08/16 01:27:51;;;;;;;11.27;7.93;;;;;;;;;;5053301;28;20032;-82
2023/08/16 01:30:18;;;;;;;10.15;7.70;;;;;;;;;;5055601;28;20024;-83
2023/08/16 01:32:43;;;;;;;12.75;7.55;;;;;;;;;;5056567;28;20024;-82
2023/08/16 01:35:09;;;;;;;12.77;8.43;;;;;;;;;;5053910;28;20041;-81
2023/08/16 01:37:34;;;;;;;11.23;8.32;;;;;;;;;;5056707;28;20525;-81
2023/08/16 01:40:04;;;;;;;13.38;8.20;;;;;;;;;;5055092;28;20195;-80
2023/08/16 01:42:37;;;;;;;18.40;11.02;;;;;;;;;;5052637;28;20032;-84
2023/08/16 01:45:03;;;;;;;17.50;11.43;;;;;;;;;;5054257;28;20020;-83
2023/08/16 01:47:29;;;;;;;19.80;13.88;;;;;;;;;;5056675;28;20506;-80
2023/08/16 01:49:56;;;;;;;23.23;14.05;;;;;;;;;;5053748;28;20037;-81
2023/08/16 01:52:22;;;;;;;25.50;14.73;;;;;;;;;;5037979;28;20053;-83
2023/08/16 01:54:47;;;;;;;23.98;15.23;;;;;;;;;;5038256;28;20130;-83
2023/08/16 01:57:13;;;;;;;26.73;15.55;;;;;;;;;;5057458;28;20028;-83
2023/08/16 01:59:38;;;;;;;23.85;13.88;;;;;;;;;;5056781;28;20021;-83
2023/08/16 02:02:03;;;;;;;19.35;12.55;;;;;;;;;;5054838;28;20037;-83
2023/08/16 02:04:29;;;;;;;17.20;11.85;;;;;;;;;;5054944;28;20064;-80
2023/08/16 02:06:54;;;;;;;290.88;15.90;;;;;;;;;;5054643;28;20064;-81
2023/08/16 02:09:19;;;;;;;14.85;10.32;;;;;;;;;;5056077;28;20033;-80
2023/08/16 02:11:45;;;;;;;22.90;11.75;;;;;;;;;;5055106;28;20040;-80
2023/08/16 02:14:10;;;;;;;21.15;13.85;;;;;;;;;;5052019;28;20036;-82
2023/08/16 02:16:38;;;;;;;23.38;14.55;;;;;;;;;;5055453;28;20085;-82
2023/08/16 02:19:04;;;;;;;21.70;14.38;;;;;;;;;;5055626;28;20040;-81
2023/08/16 02:21:29;;;;;;;22.40;14.52;;;;;;;;;;5056912;28;20036;-80
2023/08/16 02:23:54;;;;;;;23.77;13.93;;;;;;;;;;5057490;28;20033;-82
2023/08/16 02:26:20;;;;;;;17.25;11.77;;;;;;;;;;5055981;28;20053;-82
2023/08/16 02:28:48;;;;;;;16.25;12.63;;;;;;;;;;5058674;28;20440;-83
2023/08/16 02:31:14;;;;;;;19.92;13.23;;;;;;;;;;5058225;28;20036;-84
2023/08/16 02:33:39;;;;;;;19.98;12.30;;;;;;;;;;5058650;28;20033;-83
2023/08/16 02:36:04;;;;;;;12.52;10.52;;;;;;;;;;5058862;28;20025;-85
2023/08/16 02:38:30;;;;;;;18.65;10.55;;;;;;;;;;5059300;28;20423;-81
2023/08/16 02:40:55;;;;;;;13.45;10.32;;;;;;;;;;5057851;28;20410;-84
2023/08/16 02:43:21;;;;;;;15.25;10.68;;;;;;;;;;5058675;28;20033;-85
2023/08/16 02:45:46;;;;;;;14.52;10.02;;;;;;;;;;5058171;28;20029;-84
2023/08/16 02:48:11;;;;;;;12.45;9.07;;;;;;;;;;5058653;28;20036;-82
2023/08/16 02:50:37;;;;;;;12.00;9.45;;;;;;;;;;5041575;28;20460;-81
2023/08/16 02:53:03;;;;;;;14.00;8.43;;;;;;;;;;5057556;28;20037;-86
2023/08/16 02:55:29;;;;;;;11.95;8.25;;;;;;;;;;5058187;28;20029;-84
2023/08/16 02:57:54;;;;;;;12.25;8.52;;;;;;;;;;5058796;28;20029;-85
2023/08/16 03:00:20;;;;;;;12.07;8.02;;;;;;;;;;5057940;28;20035;-85
2023/08/16 03:02:45;;;;;;;9.02;8.00;;;;;;;;;;5040452;28;20071;-83
2023/08/16 03:05:10;;;;;;;12.63;8.30;;;;;;;;;;5058728;28;20538;-85
2023/08/16 03:07:36;;;;;;;10.00;7.45;;;;;;;;;;5058795;28;20086;-84
2023/08/16 03:10:02;;;;;;;10.80;8.27;;;;;;;;;;5058952;28;20119;-85
2023/08/16 03:12:28;;;;;;;14.27;9.00;;;;;;;;;;5058745;28;20390;-84
2023/08/16 03:14:53;;;;;;;13.73;9.15;;;;;;;;;;5040649;28;20017;-85
2023/08/16 03:17:18;;;;;;;19.75;11.48;;;;;;;;;;5041663;28;20037;-83
2023/08/16 03:19:44;;;;;;;19.45;11.70;;;;;;;;;;5058559;28;20040;-82
2023/08/16 03:22:09;;;;;;;13.38;9.85;;;;;;;;;;5058812;28;20040;-86
2023/08/16 03:24:35;;;;;;;18.65;10.80;;;;;;;;;;5058312;28;20033;-85
2023/08/16 03:27:00;;;;;;;14.52;10.65;;;;;;;;;;5040502;28;20013;-84
2023/08/16 03:29:26;;;;;;;17.08;12.25;;;;;;;;;;5057742;28;20075;-85
2023/08/16 03:31:51;;;;;;;26.73;15.38;;;;;;;;;;5040432;28;20033;-84
2023/08/16 03:34:17;;;;;;;19.42;14.15;;;;;;;;;;5058008;28;20048;-84
2023/08/16 03:36:42;;;;;;;21.13;13.25;;;;;;;;;;5055748;28;20045;-84
2023/08/16 03:39:07;;;;;;;17.52;12.52;;;;;;;;;;5036270;28;20021;-83
2023/08/16 03:41:33;;;;;;;22.27;12.68;;;;;;;;;;5055999;28;20031;-84
2023/08/16 03:43:59;;;;;;;13.43;10.63;;;;;;;;;;5056294;28;20487;-82
2023/08/16 03:46:25;;;;;;;15.57;10.70;;;;;;;;;;5058440;28;20045;-83
2023/08/16 03:48:50;;;;;;;16.40;10.35;;;;;;;;;;5040480;28;20087;-84
2023/08/16 03:51:15;;;;;;;14.43;10.43;;;;;;;;;;5059303;28;20032;-84
2023/08/16 03:53:40;;;;;;;16.67;10.00;;;;;;;;;;5058939;28;20031;-84
2023/08/16 03:56:06;;;;;;;11.00;9.00;;;;;;;;;;5058336;28;20123;-82
2023/08/16 03:58:31;;;;;;;11.82;9.50;;;;;;;;;;5057150;28;20033;-82
2023/08/16 04:00:56;;;;;;;11.35;8.27;;;;;;;;;;5057241;28;20028;-84
2023/08/16 04:03:22;;;;;;;20.88;9.57;;;;;;;;;;5059207;28;20116;-80
2023/08/16 04:05:47;;;;;;;20.40;11.05;;;;;;;;;;5063051;28;20064;-81
2023/08/16 04:08:12;;;;;;;17.58;10.18;;;;;;;;;;5067508;28;20029;-82
2023/08/16 04:10:38;;;;;;;17.35;10.43;;;;;;;;;;5059915;28;20044;-85
2023/08/16 04:13:04;;;;;;;16.35;10.93;;;;;;;;;;5063376;22;20536;-84
2023/08/16 04:15:30;;;;;;;18.65;11.43;;;;;;;;;;5054882;28;20044;-84
2023/08/16 04:17:56;;;;;;;15.55;10.00;;;;;;;;;;5039417;28;20420;-84
2023/08/16 04:20:22;;;;;;;13.02;9.20;;;;;;;;;;5057540;28;20113;-82
2023/08/16 04:22:47;;;;;;;11.77;9.02;;;;;;;;;;5055327;28;20038;-82
2023/08/16 04:25:13;;;;;;;17.20;7.82;;;;;;;;;;5057264;28;20037;-84
2023/08/16 04:27:38;;;;;;;13.25;9.00;;;;;;;;;;5053594;28;20025;-84
2023/08/16 04:30:05;;;;;;;18.75;7.75;;;;;;;;;;5056974;28;20028;-83
2023/08/16 04:32:31;;;;;;;9.73;7.22;;;;;;;;;;5057715;28;20032;-81
2023/08/16 04:34:56;;;;;;;12.13;8.48;;;;;;;;;;5056726;28;20033;-82
2023/08/16 04:37:21;;;;;;;11.43;7.95;;;;;;;;;;5054819;28;20040;-84
2023/08/16 04:39:48;;;;;;;11.38;9.23;;;;;;;;;;5057355;28;20028;-81
2023/08/16 04:42:13;;;;;;;17.75;7.82;;;;;;;;;;5054881;28;20077;-85
2023/08/16 04:44:39;;;;;;;10.63;7.13;;;;;;;;;;5057061;28;20449;-83
2023/08/16 04:47:04;;;;;;;13.07;7.45;;;;;;;;;;5056427;28;20041;-84
2023/08/16 04:49:32;;;;;;;8.95;6.60;;;;;;;;;;5056986;28;20144;-85
2023/08/16 04:51:57;;;;;;;11.95;7.40;;;;;;;;;;5054289;28;20068;-82
2023/08/16 04:54:22;;;;;;;8.65;7.15;;;;;;;;;;5035289;28;20037;-83
2023/08/16 04:56:48;;;;;;;11.00;6.38;;;;;;;;;;5055258;28;20021;-84
2023/08/16 04:59:13;;;;;;;6.90;6.03;;;;;;;;;;5057559;28;20097;-82
2023/08/16 05:01:39;;;;;;;9.27;5.35;;;;;;;;;;5039902;28;20656;-82
2023/08/16 05:04:06;;;;;;;8.57;5.05;;;;;;;;;;5054349;28;20083;-83
2023/08/16 05:06:32;;;;;;;5.28;4.65;;;;;;;;;;5054357;28;20025;-84
2023/08/16 05:08:57;;;;;;;5.75;4.07;;;;;;;;;;5038259;28;20402;-81
2023/08/16 05:11:23;;;;;;;7.82;4.40;;;;;;;;;;5054399;28;20044;-83
2023/08/16 05:13:48;;;;;;;10.27;4.55;;;;;;;;;;5054283;28;20427;-83
2023/08/16 05:16:13;;;;;;;5.57;3.90;;;;;;;;;;5052392;28;20037;-82
2023/08/16 05:18:38;;;;;;;5.57;3.97;;;;;;;;;;5054912;28;20032;-84
2023/08/16 05:21:04;;;;;;;5.72;3.40;;;;;;;;;;5048426;28;20032;-83
2023/08/16 05:23:29;;;;;;;3.95;3.65;;;;;;;;;;5055001;28;20029;-84
2023/08/16 05:25:55;;;;;;;4.28;3.60;;;;;;;;;;5052674;28;20175;-83
2023/08/16 05:28:20;;;;;;;4.97;3.85;;;;;;;;;;5053166;28;20591;-82
2023/08/16 05:30:45;;;;;;;6.28;3.40;;;;;;;;;;5053540;28;20041;-82
2023/08/16 05:33:11;;;;;;;3.38;3.08;;;;;;;;;;5053317;28;20033;-84
2023/08/16 05:35:36;;;;;;;6.38;3.10;;;;;;;;;;5055508;28;20395;-83
2023/08/16 05:38:04;;;;;;;3.65;3.22;;;;;;;;;;5050370;28;20445;-81
2023/08/16 05:40:29;;;;;;;3.63;3.08;;;;;;;;;;5055046;28;20033;-83
2023/08/16 05:42:55;;;;;;;3.42;3.13;;;;;;;;;;5054955;28;20083;-84
2023/08/16 05:45:22;;;;;;;4.05;2.85;;;;;;;;;;5052161;28;20037;-83
2023/08/16 05:47:57;;;;;;;5.40;2.72;;;;;;;;;;5039071;28;20021;-80
2023/08/16 05:50:23;;;;;;;2.55;2.35;;;;;;;;;;5054832;28;20037;-82
2023/08/16 05:52:48;;;;;;;5.47;2.78;;;;;;;;;;5053060;28;20049;-83
2023/08/16 05:55:14;;;;;;;5.22;2.53;;;;;;;;;;5051191;28;20060;-82
2023/08/16 05:57:39;;;;;;;3.80;3.05;;;;;;;;;;5054068;28;20739;-82
2023/08/16 06:00:05;;;;;;;6.18;2.70;;;;;;;;;;5053398;28;20050;-80
2023/08/16 06:02:30;;;;;;;3.75;2.75;;;;;;;;;;5052214;28;20394;-82
2023/08/16 06:04:58;;;;;;;5.25;2.05;;;;;;;;;;5054732;28;20033;-83
2023/08/16 06:07:25;;;;;;;2.92;2.70;;;;;;;;;;5034124;28;20086;-83
2023/08/16 06:09:51;;;;;;;3.55;2.45;;;;;;;;;;5051244;28;20037;-81
2023/08/16 06:12:16;;;;;;;2.97;2.60;;;;;;;;;;5052793;28;20084;-83
2023/08/16 06:14:41;;;;;;;3.03;2.78;;;;;;;;;;5055819;28;20027;-82
2023/08/16 06:17:07;;;;;;;4.38;2.53;;;;;;;;;;5054024;28;20401;-81
2023/08/16 06:19:32;;;;;;;2.78;2.55;;;;;;;;;;5035263;28;20501;-82
2023/08/16 06:21:59;;;;;;;4.35;2.72;;;;;;;;;;5052190;28;20120;-83
2023/08/16 06:24:25;;;;;;;3.47;2.53;;;;;;;;;;5051400;28;20029;-83
2023/08/16 06:26:50;;;;;;;2.65;2.40;;;;;;;;;;5055783;28;20020;-82
2023/08/16 06:29:16;;;;;;;2.65;2.40;;;;;;;;;;5052066;28;20037;-82
2023/08/16 06:31:41;;;;;;;2.80;2.13;;;;;;;;;;5035458;28;20040;-79
2023/08/16 06:34:06;;;;;;;4.03;2.40;;;;;;;;;;5050874;28;20033;-83
2023/08/16 06:36:32;;;;;;;3.10;2.53;;;;;;;;;;5054124;28;20029;-81
2023/08/16 06:38:58;;;;;;;5.28;2.70;;;;;;;;;;5054122;28;20096;-81
2023/08/16 06:41:23;;;;;;;2.72;2.25;;;;;;;;;;5052852;28;20532;-82
2023/08/16 06:43:49;;;;;;;4.55;2.58;;;;;;;;;;5053975;28;20097;-82
2023/08/16 06:46:14;;;;;;;3.17;2.65;;;;;;;;;;5053748;28;20025;-81
2023/08/16 06:48:39;;;;;;;3.63;2.65;;;;;;;;;;5052713;28;20033;-82
2023/08/16 06:51:05;;;;;;;3.17;2.55;;;;;;;;;;5054464;28;20425;-82
2023/08/16 06:53:33;;;;;;;3.95;2.40;;;;;;;;;;5055336;28;20017;-80
2023/08/16 06:55:58;;;;;;;4.43;2.60;;;;;;;;;;5063421;28;20525;-82
2023/08/16 06:58:24;;;;;;;4.45;2.80;;;;;;;;;;5051978;28;20034;-82
2023/08/16 07:00:49;;;;;;;2.67;2.47;;;;;;;;;;5051228;28;20055;-83
2023/08/16 07:03:17;;;;;;;4.55;2.85;;;;;;;;;;5054034;28;20017;-83
2023/08/16 07:05:42;;;;;;;3.83;2.28;;;;;;;;;;5053062;28;20426;-83
2023/08/16 07:08:08;;;;;;;4.30;2.15;;;;;;;;;;5057106;28;20083;-83
2023/08/16 07:10:34;;;;;;;4.43;2.67;;;;;;;;;;5052857;28;20120;-83
2023/08/16 07:12:59;;;;;;;2.50;2.30;;;;;;;;;;5037472;28;20041;-81
2023/08/16 07:15:24;;;;;;;3.33;2.40;;;;;;;;;;5034765;28;20124;-81
2023/08/16 07:17:50;;;;;;;6.82;2.67;;;;;;;;;;5048596;28;20029;-82
2023/08/16 07:20:15;;;;;;;2.78;2.33;;;;;;;;;;5035980;28;20047;-84
2023/08/16 07:22:41;;;;;;;2.88;2.42;;;;;;;;;;5055726;28;20064;-82
2023/08/16 07:25:08;;;;;;;3.83;2.58;;;;;;;;;;5051601;28;20040;-81
2023/08/16 07:27:33;;;;;;;3.83;2.67;;;;;;;;;;5053988;28;20111;-82
2023/08/16 07:29:59;;;;;;;4.65;2.67;;;;;;;;;;5049738;28;20017;-83
2023/08/16 07:32:24;;;;;;;3.83;2.58;;;;;;;;;;5054093;28;20127;-83
2023/08/16 07:34:50;;;;;;;2.95;2.10;;;;;;;;;;5048454;28;20048;-82
2023/08/16 07:37:15;;;;;;;4.13;2.40;;;;;;;;;;5052061;28;20029;-80
2023/08/16 07:39:41;;;;;;;4.00;2.72;;;;;;;;;;5050614;28;20478;-83
2023/08/16 07:42:09;;;;;;;3.97;2.90;;;;;;;;;;5054012;28;20017;-80
2023/08/16 07:44:35;;;;;;;3.03;2.72;;;;;;;;;;5051654;28;20025;-82
2023/08/16 07:47:00;;;;;;;4.70;3.38;;;;;;;;;;5035353;28;20033;-82
2023/08/16 07:49:26;;;;;;;4.05;2.45;;;;;;;;;;5052072;28;20033;-82
2023/08/16 07:51:55;;;;;;;2.97;2.60;;;;;;;;;;5055838;28;20029;-82
2023/08/16 07:54:20;;;;;;;6.28;2.90;;;;;;;;;;5035356;28;20056;-82
2023/08/16 07:56:45;;;;;;;2.80;2.60;;;;;;;;;;5053180;28;20497;-83
2023/08/16 07:59:11;;;;;;;8.73;2.83;;;;;;;;;;5054358;28;20036;-82
2023/08/16 08:01:36;;;;;;;2.35;2.20;;;;;;;;;;5053679;28;20037;-82
2023/08/16 08:04:02;;;;;;;3.03;2.35;;;;;;;;;;5054744;28;20033;-83
2023/08/16 08:06:30;;;;;;;3.88;2.03;;;;;;;;;;5053462;28;20029;-83
2023/08/16 08:08:55;;;;;;;2.47;2.28;;;;;;;;;;5054274;28;20028;-81
2023/08/16 08:11:21;;;;;;;2.47;2.13;;;;;;;;;;5053147;28;20041;-80
2023/08/16 08:13:46;;;;;;;2.75;1.92;;;;;;;;;;5047125;28;20064;-83
2023/08/16 08:16:11;;;;;;;2.85;2.10;;;;;;;;;;5052365;28;20044;-82
2023/08/16 08:18:37;;;;;;;4.07;2.20;;;;;;;;;;5032912;28;20029;-84
2023/08/16 08:21:02;;;;;;;2.30;2.10;;;;;;;;;;5050722;28;20048;-82
2023/08/16 08:23:27;;;;;;;7.03;3.05;;;;;;;;;;5050495;28;20078;-84
2023/08/16 08:25:53;;;;;;;2.47;2.08;;;;;;;;;;5051918;28;20036;-83
2023/08/16 08:28:18;;;;;;;2.47;2.20;;;;;;;;;;5049740;28;20041;-83
2023/08/16 08:30:44;;;;;;;5.00;2.40;;;;;;;;;;5039157;28;20079;-82
2023/08/16 08:33:10;;;;;;;2.53;2.33;;;;;;;;;;5053916;28;20036;-80
2023/08/16 08:35:36;;;;;;;2.92;2.30;;;;;;;;;;5055925;28;20041;-82
2023/08/16 08:38:02;;;;;;;2.67;1.90;;;;;;;;;;5038875;28;20033;-83
2023/08/16 08:40:31;;;;;;;2.97;2.00;;;;;;;;;;5035757;28;20116;-84
2023/08/16 08:42:58;;;;;;;4.00;2.42;;;;;;;;;;5055870;28;21457;-83
2023/08/16 08:45:24;;;;;;;2.30;2.10;;;;;;;;;;5054628;28;20049;-83
2023/08/16 08:47:50;;;;;;;2.00;1.90;;;;;;;;;;5056230;28;20029;-79
2023/08/16 08:50:16;;;;;;;4.30;2.30;;;;;;;;;;5035195;28;20110;-83
2023/08/16 08:52:42;;;;;;;6.78;2.20;;;;;;;;;;5050971;28;20033;-81
2023/08/16 08:55:08;;;;;;;5.63;1.92;;;;;;;;;;5053109;28;20105;-83
2023/08/16 08:57:35;;;;;;;1.83;1.60;;;;;;;;;;5052594;28;20534;-81
2023/08/16 09:00:01;;;;;;;2.42;1.88;;;;;;;;;;5049791;28;20013;-82
2023/08/16 09:02:30;;;;;;;2.17;1.80;;;;;;;;;;5050370;28;20032;-82
2023/08/16 09:05:02;;;;;;;6.20;2.03;;;;;;;;;;5051405;28;20083;-83
2023/08/16 09:07:30;;;;;;;2.30;2.08;;;;;;;;;;5052504;28;20124;-82
2023/08/16 09:09:55;;;;;;;4.10;1.92;;;;;;;;;;5052684;28;20041;-80
2023/08/16 09:12:20;;;;;;;2.15;1.80;;;;;;;;;;5047055;28;20040;-81
2023/08/16 09:14:45;;;;;;;2.83;1.73;;;;;;;;;;5053233;28;20028;-82
2023/08/16 09:17:11;;;;;;;2.72;1.80;;;;;;;;;;5054770;28;20032;-79
2023/08/16 09:19:44;;;;;;;2.53;2.05;;;;;;;;;;5051700;28;20033;-82
2023/08/16 09:22:10;;;;;;;4.50;2.00;;;;;;;;;;5053913;28;20048;-81
2023/08/16 09:24:35;;;;;;;2.20;2.00;;;;;;;;;;5055731;28;20036;-83
2023/08/16 09:27:01;;;;;;;6.15;1.77;;;;;;;;;;5054193;28;20368;-80
2023/08/16 09:29:26;;;;;;;3.88;2.00;;;;;;;;;;5050954;28;20675;-80
2023/08/16 09:31:51;;;;;;;4.05;2.20;;;;;;;;;;5050713;28;20325;-82
2023/08/16 09:34:20;;;;;;;2.17;1.80;;;;;;;;;;5033624;28;20110;-82
2023/08/16 09:36:46;;;;;;;2.10;1.88;;;;;;;;;;5052058;28;20037;-78
2023/08/16 09:39:11;;;;;;;3.05;1.80;;;;;;;;;;5053461;28;20032;-82
2023/08/16 09:41:46;;;;;;;7.00;1.95;;;;;;;;;;5054851;28;20040;-83
2023/08/16 09:44:12;;;;;;;3.72;2.22;;;;;;;;;;5053009;28;20048;-82
2023/08/16 09:46:38;;;;;;;2.17;1.80;;;;;;;;;;5055082;28;20507;-81
2023/08/16 09:49:09;;;;;;;3.08;1.98;;;;;;;;;;5054627;28;20079;-80
2023/08/16 09:51:36;;;;;;;2.95;2.08;;;;;;;;;;5033289;28;20061;-81
2023/08/16 09:54:07;;;;;;;4.30;2.25;;;;;;;;;;5049474;28;20890;-81
2023/08/16 09:56:34;;;;;;;2.75;2.13;;;;;;;;;;5047075;28;20033;-82
2023/08/16 09:59:00;;;;;;;2.67;2.10;;;;;;;;;;5048990;28;20040;-82
2023/08/16 10:01:26;;;;;;;4.25;2.00;;;;;;;;;;5051516;28;20087;-80
2023/08/16 10:03:53;;;;;;;2.22;1.77;;;;;;;;;;5053046;28;20028;-82
2023/08/16 10:06:23;;;;;;;2.00;1.90;;;;;;;;;;5049712;28;20029;-83
2023/08/16 10:08:49;;;;;;;1.70;1.60;;;;;;;;;;5053927;28;20024;-82
2023/08/16 10:11:15;;;;;;;2.67;1.77;;;;;;;;;;5047828;28;20025;-82
2023/08/16 10:13:42;;;;;;;2.00;1.90;;;;;;;;;;5053589;28;20083;-81
2023/08/16 10:16:11;;;;;;;1.85;1.75;;;;;;;;;;5054178;28;20025;-82
2023/08/16 10:18:39;;;;;;;2.35;1.90;;;;;;;;;;5054743;28;20118;-82
2023/08/16 10:21:07;;;;;;;2.13;1.80;;;;;;;;;;5053195;28;20702;-82
2023/08/16 10:23:34;;;;;;;2.10;1.90;;;;;;;;;;5052122;28;20031;-80
2023/08/16 10:26:02;;;;;;;4.95;2.03;;;;;;;;;;5057020;28;20117;-81
2023/08/16 10:28:28;;;;;;;2.28;1.92;;;;;;;;;;5051742;28;20052;-82
2023/08/16 10:30:57;;;;;;;1.92;1.80;;;;;;;;;;5058507;28;20116;-82
2023/08/16 10:33:44;;;;;;;3.13;2.22;;;;;;;;;;5040530;28;20029;-80
2023/08/16 10:36:11;;;;;;;2.40;2.00;;;;;;;;;;5056020;28;20120;-82
2023/08/16 10:38:37;;;;;;;2.20;2.00;;;;;;;;;;5057139;28;20384;-82
2023/08/16 10:41:09;;;;;;;2.35;2.15;;;;;;;;;;5056925;28;20029;-80
2023/08/16 10:43:35;;;;;;;2.20;1.98;;;;;;;;;;5055860;28;20036;-82
2023/08/16 10:46:01;;;;;;;3.75;2.10;;;;;;;;;;5054467;28;20036;-79
2023/08/16 10:48:39;;;;;;;3.83;1.88;;;;;;;;;;5055461;28;20056;-82
2023/08/16 10:51:07;;;;;;;3.47;2.20;;;;;;;;;;5054742;28;20544;-81
2023/08/16 10:53:34;;;;;;;1.90;1.80;;;;;;;;;;5054744;28;20035;-80
2023/08/16 10:56:08;;;;;;;2.10;1.90;;;;;;;;;;5054631;28;20071;-82
2023/08/16 10:58:46;;;;;;;3.05;2.00;;;;;;;;;;5054491;28;20032;-81
2023/08/16 11:01:11;;;;;;;2.10;1.90;;;;;;;;;;5053798;28;20401;-81
2023/08/16 11:03:39;;;;;;;2.25;1.98;;;;;;;;;;5036307;28;20053;-82
2023/08/16 11:06:09;;;;;;;2.58;2.25;;;;;;;;;;5054093;28;20021;-81
2023/08/16 11:08:35;;;;;;;2.00;1.90;;;;;;;;;;5054812;28;20035;-81
2023/08/16 11:11:04;;;;;;;4.53;2.63;;;;;;;;;;5054521;28;20499;-81
2023/08/16 11:13:29;;;;;;;2.25;1.80;;;;;;;;;;5054397;28;20041;-82
2023/08/16 11:15:57;;;;;;;2.45;2.30;;;;;;;;;;5060954;28;20052;-81
2023/08/16 11:18:30;;;;;;;2.70;2.35;;;;;;;;;;5060685;28;20751;-81
2023/08/16 11:20:59;;;;;;;2.20;2.00;;;;;;;;;;5057956;28;20272;-82
2023/08/16 11:23:30;;;;;;;2.22;2.03;;;;;;;;;;5062033;28;20629;-81
2023/08/16 11:26:00;;;;;;;5.18;2.20;;;;;;;;;;5061113;28;20029;-82
2023/08/16 11:28:27;;;;;;;2.03;1.85;;;;;;;;;;5058158;28;20037;-83
2023/08/16 11:31:03;;;;;;;2.10;2.00;;;;;;;;;;5055267;28;20033;-82
2023/08/16 11:33:32;;;;;;;2.95;2.00;;;;;;;;;;5033747;28;20037;-82
2023/08/16 11:36:00;;;;;;;2.72;1.95;;;;;;;;;;5052726;28;20185;-82
2023/08/16 11:38:27;;;;;;;2.47;1.80;;;;;;;;;;5052373;28;20093;-81
2023/08/16 11:40:52;;;;;;;4.22;2.20;;;;;;;;;;5054090;28;20177;-83
2023/08/16 11:43:18;;;;;;;2.95;1.90;;;;;;;;;;5031621;28;20128;-81
2023/08/16 11:45:51;;;;;;;2.65;2.10;;;;;;;;;;5047563;28;20040;-81
2023/08/16 11:48:17;;;;;;;4.28;2.10;;;;;;;;;;5052159;28;20025;-80
2023/08/16 11:50:44;;;;;;;5.07;2.22;;;;;;;;;;5053787;28;20048;-83
2023/08/16 11:53:09;;;;;;;2.60;2.00;;;;;;;;;;5052939;28;20033;-81
2023/08/16 11:55:35;;;;;;;5.20;2.10;;;;;;;;;;5051296;28;20040;-82
2023/08/16 11:58:04;;;;;;;3.30;1.55;;;;;;;;;;5052399;28;20064;-84
2023/08/16 12:00:33;;;;;;;1.60;1.50;;;;;;;;;;5035765;28;20605;-82
2023/08/16 12:03:05;;;;;;;1.73;1.63;;;;;;;;;;5052213;28;20029;-82
2023/08/16 12:05:40;;;;;;;3.58;1.60;;;;;;;;;;5055023;28;20461;-83
2023/08/16 12:08:07;;;;;;;2.67;2.03;;;;;;;;;;5037973;28;20055;-80
2023/08/16 12:10:33;;;;;;;2.55;1.80;;;;;;;;;;5036920;28;20061;-82
2023/08/16 12:13:09;;;;;;;2.38;1.70;;;;;;;;;;5056681;28;20092;-82
2023/08/16 12:15:34;;;;;;;2.97;1.60;;;;;;;;;;5057588;28;20645;-83
2023/08/16 12:17:59;;;;;;;1.70;1.60;;;;;;;;;;5057971;28;20021;-83
2023/08/16 12:20:25;;;;;;;2.15;1.60;;;;;;;;;;5056705;28;20545;-81
2023/08/16 12:22:52;;;;;;;5.53;1.60;;;;;;;;;;5059339;28;20058;-83
2023/08/16 12:25:17;;;;;;;2.15;1.48;;;;;;;;;;5059412;28;20025;-82
2023/08/16 12:27:43;;;;;;;2.92;1.70;;;;;;;;;;5058000;28;20130;-83
2023/08/16 12:30:09;;;;;;;1.70;1.60;;;;;;;;;;5060481;28;20032;-82
2023/08/16 12:32:35;;;;;;;2.88;1.67;;;;;;;;;;5062215;28;20033;-80
2023/08/16 12:35:00;;;;;;;2.20;1.77;;;;;;;;;;5054978;28;20122;-82
2023/08/16 12:37:25;;;;;;;1.67;1.50;;;;;;;;;;5057606;28;20056;-82
2023/08/16 12:39:50;;;;;;;1.83;1.70;;;;;;;;;;5057354;28;20112;-85
2023/08/16 12:42:16;;;;;;;4.53;1.90;;;;;;;;;;5058690;28;20658;-83
2023/08/16 12:44:41;;;;;;;4.07;1.67;;;;;;;;;;5057903;28;20027;-82
2023/08/16 12:47:06;;;;;;;1.65;1.50;;;;;;;;;;5059377;28;20122;-81
2023/08/16 12:49:32;;;;;;;3.47;1.58;;;;;;;;;;5063937;28;20047;-80
2023/08/16 12:51:57;;;;;;;3.13;1.45;;;;;;;;;;5064276;28;20068;-82
2023/08/16 12:54:22;;;;;;;1.45;1.35;;;;;;;;;;5059079;28;20143;-82
2023/08/16 12:56:48;;;;;;;1.50;1.40;;;;;;;;;;5056553;28;20033;-82
2023/08/16 12:59:13;;;;;;;2.20;1.48;;;;;;;;;;5056802;28;20480;-81
2023/08/16 13:01:38;;;;;;;2.05;1.67;;;;;;;;;;5053417;28;20118;-84
2023/08/16 13:04:04;;;;;;;1.60;1.50;;;;;;;;;;5035185;28;20524;-83
2023/08/16 13:06:29;;;;;;;2.55;1.60;;;;;;;;;;5068089;28;20078;-82
2023/08/16 13:08:55;;;;;;;1.58;1.48;;;;;;;;;;5068197;28;20039;-82
2023/08/16 13:11:23;;;;;;;4.10;1.67;;;;;;;;;;5067172;28;20193;-82
2023/08/16 13:13:48;;;;;;;1.40;1.40;;;;;;;;;;5067337;28;20130;-82
2023/08/16 13:16:14;;;;;;;1.80;1.60;;;;;;;;;;5066434;28;20093;-81
2023/08/16 13:18:43;;;;;;;2.67;1.73;;;;;;;;;;5067916;28;20116;-82
2023/08/16 13:21:09;;;;;;;2.08;1.70;;;;;;;;;;5065670;28;20208;-83
2023/08/16 13:23:34;;;;;;;1.70;1.60;;;;;;;;;;5040352;23;20539;-80
2023/08/16 13:25:59;;;;;;;1.70;1.60;;;;;;;;;;5009984;28;20061;-81
2023/08/16 13:28:25;;;;;;;1.92;1.83;;;;;;;;;;4996738;28;20574;-80
2023/08/16 13:30:51;;;;;;;1.70;1.60;;;;;;;;;;4996341;28;20041;-80
2023/08/16 13:33:16;;;;;;;1.88;1.77;;;;;;;;;;5007073;28;20033;-79
2023/08/16 13:35:43;;;;;;;3.47;2.10;;;;;;;;;;4984979;28;20038;-79
2023/08/16 13:38:09;;;;;;;1.52;1.40;;;;;;;;;;5007419;28;20027;-80
2023/08/16 13:40:36;;;;;;;2.13;2.00;;;;;;;;;;4986334;28;20042;-80
2023/08/16 13:43:01;;;;;;;3.78;2.00;;;;;;;;;;5003409;28;20357;-80
2023/08/16 13:45:29;;;;;;;1.63;1.52;;;;;;;;;;4987818;28;20034;-80
2023/08/16 13:47:56;;;;;;;2.88;2.00;;;;;;;;;;4985636;28;20026;-80
2023/08/16 13:50:21;;;;;;;3.20;2.08;;;;;;;;;;4989686;28;20035;-80
2023/08/16 13:52:46;;;;;;;1.85;1.75;;;;;;;;;;4988811;28;20121;-80
2023/08/16 13:55:14;;;;;;;2.20;2.08;;;;;;;;;;4985108;28;20104;-79
2023/08/16 13:57:39;;;;;;;1.80;1.70;;;;;;;;;;5002119;28;20034;-80
2023/08/16 14:00:07;;;;;;;1.83;1.73;;;;;;;;;;4986767;28;20033;-80
2023/08/16 14:02:33;;;;;;;2.17;1.98;;;;;;;;;;4988257;28;20018;-80
2023/08/16 14:04:58;;;;;;;2.10;1.90;;;;;;;;;;4984134;28;20027;-79
2023/08/16 14:07:24;;;;;;;3.45;2.10;;;;;;;;;;4986047;28;20122;-79
2023/08/16 14:09:51;;;;;;;1.90;1.80;;;;;;;;;;5002494;28;20070;-79
2023/08/16 14:12:17;;;;;;;2.10;2.00;;;;;;;;;;4989070;28;20022;-79
2023/08/16 14:14:42;;;;;;;4.20;1.90;;;;;;;;;;4987122;28;20065;-79
2023/08/16 14:17:08;;;;;;;2.20;2.10;;;;;;;;;;4990204;28;20050;-79
2023/08/16 14:19:33;;;;;;;3.08;2.00;;;;;;;;;;4987200;28;20049;-79
2023/08/16 14:21:59;;;;;;;1.95;1.83;;;;;;;;;;4986756;28;20038;-79
2023/08/16 14:24:25;;;;;;;2.22;2.03;;;;;;;;;;4987601;28;20090;-80
2023/08/16 14:26:50;;;;;;;2.13;2.03;;;;;;;;;;4989853;28;20035;-79
2023/08/16 14:29:16;;;;;;;2.10;2.00;;;;;;;;;;4988239;28;20049;-79
2023/08/16 14:31:41;;;;;;;2.10;1.90;;;;;;;;;;4984567;28;20050;-79
2023/08/16 14:34:07;;;;;;;2.17;1.98;;;;;;;;;;4986519;28;20062;-79